sensor_id;sensor_type;location;lat;lon;timestamp;P1;durP1;ratioP1;P2;durP2;ratioP2
2313;SDS011;42279;51.388;7.000;2023-02-12T00:01:43;72.30;;;35.53;;
2313;SDS011;42279;51.388;7.000;2023-02-12T00:04:10;65.77;;;35.50;;
2313;SDS011;42279;51.388;7.000;2023-02-12T00:06:36;61.87;;;34.37;;
2313;SDS011;42279;51.388;7.000;2023-02-12T00:09:03;56.97;;;32.13;;
2313;SDS011;42279;51.388;7.000;2023-02-12T00:11:29;53.87;;;32.03;;
2313;SDS011;42279;51.388;7.000;2023-02-12T00:13:56;59.13;;;30.70;;
2313;SDS011;42279;51.388;7.000;2023-02-12T00:16:23;64.40;;;32.20;;
2313;SDS011;42279;51.388;7.000;2023-02-12T00:18:53;66.83;;;33.40;;
2313;SDS011;42279;51.388;7.000;2023-02-12T00:21:19;61.33;;;33.50;;
2313;SDS011;42279;51.388;7.000;2023-02-12T00:23:45;70.40;;;35.80;;
2313;SDS011;42279;51.388;7.000;2023-02-12T00:26:15;61.53;;;32.93;;
2313;SDS011;42279;51.388;7.000;2023-02-12T00:28:42;81.20;;;36.80;;
2313;SDS011;42279;51.388;7.000;2023-02-12T00:31:09;67.13;;;35.47;;
2313;SDS011;42279;51.388;7.000;2023-02-12T00:33:36;66.90;;;34.17;;
2313;SDS011;42279;51.388;7.000;2023-02-12T00:36:02;65.47;;;32.50;;
2313;SDS011;42279;51.388;7.000;2023-02-12T00:38:28;63.13;;;31.43;;
2313;SDS011;42279;51.388;7.000;2023-02-12T00:40:54;64.27;;;32.40;;
2313;SDS011;42279;51.388;7.000;2023-02-12T00:43:20;57.03;;;31.50;;
2313;SDS011;42279;51.388;7.000;2023-02-12T00:45:46;63.60;;;31.30;;
2313;SDS011;42279;51.388;7.000;2023-02-12T00:48:13;55.43;;;31.30;;
2313;SDS011;42279;51.388;7.000;2023-02-12T00:50:39;56.63;;;31.30;;
2313;SDS011;42279;51.388;7.000;2023-02-12T00:53:05;72.13;;;33.80;;
2313;SDS011;42279;51.388;7.000;2023-02-12T00:55:32;62.93;;;33.80;;
2313;SDS011;42279;51.388;7.000;2023-02-12T00:57:58;69.80;;;33.87;;
2313;SDS011;42279;51.388;7.000;2023-02-12T01:00:24;70.73;;;35.23;;
2313;SDS011;42279;51.388;7.000;2023-02-12T01:02:50;58.60;;;33.00;;
2313;SDS011;42279;51.388;7.000;2023-02-12T01:05:16;64.43;;;34.57;;
2313;SDS011;42279;51.388;7.000;2023-02-12T01:07:43;55.10;;;30.53;;
2313;SDS011;42279;51.388;7.000;2023-02-12T01:10:09;66.77;;;31.93;;
2313;SDS011;42279;51.388;7.000;2023-02-12T01:12:35;74.87;;;35.33;;
2313;SDS011;42279;51.388;7.000;2023-02-12T01:15:01;75.50;;;35.53;;
2313;SDS011;42279;51.388;7.000;2023-02-12T01:17:35;70.03;;;33.30;;
2313;SDS011;42279;51.388;7.000;2023-02-12T01:20:01;65.17;;;33.90;;
2313;SDS011;42279;51.388;7.000;2023-02-12T01:22:27;74.53;;;33.83;;
2313;SDS011;42279;51.388;7.000;2023-02-12T01:24:53;66.27;;;34.20;;
2313;SDS011;42279;51.388;7.000;2023-02-12T01:27:19;60.07;;;31.30;;
2313;SDS011;42279;51.388;7.000;2023-02-12T01:29:45;54.60;;;31.47;;
2313;SDS011;42279;51.388;7.000;2023-02-12T01:32:11;70.53;;;32.90;;
2313;SDS011;42279;51.388;7.000;2023-02-12T01:34:37;62.63;;;32.57;;
2313;SDS011;42279;51.388;7.000;2023-02-12T01:37:03;64.47;;;35.17;;
2313;SDS011;42279;51.388;7.000;2023-02-12T01:39:29;68.83;;;31.07;;
2313;SDS011;42279;51.388;7.000;2023-02-12T01:41:55;56.13;;;30.53;;
2313;SDS011;42279;51.388;7.000;2023-02-12T01:44:26;61.67;;;31.40;;
2313;SDS011;42279;51.388;7.000;2023-02-12T01:46:57;62.93;;;31.97;;
2313;SDS011;42279;51.388;7.000;2023-02-12T01:49:25;61.60;;;32.73;;
2313;SDS011;42279;51.388;7.000;2023-02-12T01:51:54;74.83;;;33.60;;
2313;SDS011;42279;51.388;7.000;2023-02-12T01:54:23;51.37;;;31.43;;
2313;SDS011;42279;51.388;7.000;2023-02-12T01:56:50;56.13;;;31.77;;
2313;SDS011;42279;51.388;7.000;2023-02-12T01:59:16;57.90;;;29.10;;
2313;SDS011;42279;51.388;7.000;2023-02-12T02:01:43;59.37;;;29.20;;
2313;SDS011;42279;51.388;7.000;2023-02-12T02:04:12;56.63;;;29.73;;
2313;SDS011;42279;51.388;7.000;2023-02-12T02:06:56;57.10;;;30.90;;
2313;SDS011;42279;51.388;7.000;2023-02-12T02:09:23;63.63;;;32.97;;
2313;SDS011;42279;51.388;7.000;2023-02-12T02:11:50;55.10;;;31.67;;
2313;SDS011;42279;51.388;7.000;2023-02-12T02:14:35;63.37;;;30.60;;
2313;SDS011;42279;51.388;7.000;2023-02-12T02:25:01;51.27;;;29.77;;
2313;SDS011;42279;51.388;7.000;2023-02-12T02:30:18;61.40;;;31.00;;
2313;SDS011;42279;51.388;7.000;2023-02-12T02:35:20;66.10;;;35.23;;
2313;SDS011;42279;51.388;7.000;2023-02-12T02:38:02;63.57;;;32.07;;
2313;SDS011;42279;51.388;7.000;2023-02-12T02:40:32;70.80;;;35.67;;
2313;SDS011;42279;51.388;7.000;2023-02-12T02:43:08;78.30;;;34.30;;
2313;SDS011;42279;51.388;7.000;2023-02-12T02:45:42;53.47;;;30.97;;
2313;SDS011;42279;51.388;7.000;2023-02-12T02:50:43;61.93;;;30.80;;
2313;SDS011;42279;51.388;7.000;2023-02-12T02:53:22;59.97;;;29.83;;
2313;SDS011;42279;51.388;7.000;2023-02-12T02:55:52;56.10;;;32.60;;
2313;SDS011;42279;51.388;7.000;2023-02-12T02:58:23;60.10;;;32.90;;
2313;SDS011;42279;51.388;7.000;2023-02-12T03:00:56;64.80;;;33.13;;
2313;SDS011;42279;51.388;7.000;2023-02-12T03:03:31;61.70;;;31.10;;
2313;SDS011;42279;51.388;7.000;2023-02-12T03:05:59;56.23;;;31.30;;
2313;SDS011;42279;51.388;7.000;2023-02-12T03:08:33;63.50;;;32.50;;
2313;SDS011;42279;51.388;7.000;2023-02-12T03:11:02;61.90;;;31.77;;
2313;SDS011;42279;51.388;7.000;2023-02-12T03:13:35;67.47;;;36.20;;
2313;SDS011;42279;51.388;7.000;2023-02-12T03:16:10;61.37;;;32.77;;
2313;SDS011;42279;51.388;7.000;2023-02-12T03:18:40;69.57;;;31.93;;
2313;SDS011;42279;51.388;7.000;2023-02-12T03:21:12;61.17;;;32.30;;
2313;SDS011;42279;51.388;7.000;2023-02-12T03:23:43;59.90;;;29.40;;
2313;SDS011;42279;51.388;7.000;2023-02-12T03:29:12;58.43;;;31.70;;
2313;SDS011;42279;51.388;7.000;2023-02-12T03:31:47;63.13;;;31.50;;
2313;SDS011;42279;51.388;7.000;2023-02-12T03:34:23;57.60;;;30.73;;
2313;SDS011;42279;51.388;7.000;2023-02-12T03:36:53;60.17;;;30.57;;
2313;SDS011;42279;51.388;7.000;2023-02-12T03:39:28;59.87;;;29.10;;
2313;SDS011;42279;51.388;7.000;2023-02-12T03:42:03;56.47;;;31.03;;
2313;SDS011;42279;51.388;7.000;2023-02-12T03:44:37;55.63;;;30.63;;
2313;SDS011;42279;51.388;7.000;2023-02-12T03:47:13;65.87;;;30.83;;
2313;SDS011;42279;51.388;7.000;2023-02-12T03:49:48;59.77;;;31.07;;
2313;SDS011;42279;51.388;7.000;2023-02-12T03:52:15;71.57;;;32.60;;
2313;SDS011;42279;51.388;7.000;2023-02-12T03:54:41;60.47;;;29.53;;
2313;SDS011;42279;51.388;7.000;2023-02-12T03:57:20;63.20;;;32.13;;
2313;SDS011;42279;51.388;7.000;2023-02-12T03:59:47;60.10;;;31.57;;
2313;SDS011;42279;51.388;7.000;2023-02-12T04:02:14;55.17;;;29.73;;
2313;SDS011;42279;51.388;7.000;2023-02-12T04:04:41;53.90;;;31.23;;
2313;SDS011;42279;51.388;7.000;2023-02-12T04:07:07;52.90;;;29.30;;
2313;SDS011;42279;51.388;7.000;2023-02-12T04:09:33;62.00;;;30.33;;
2313;SDS011;42279;51.388;7.000;2023-02-12T04:17:25;52.10;;;28.47;;
2313;SDS011;42279;51.388;7.000;2023-02-12T04:22:24;57.93;;;32.93;;
2313;SDS011;42279;51.388;7.000;2023-02-12T04:25:02;55.50;;;29.30;;
2313;SDS011;42279;51.388;7.000;2023-02-12T04:27:40;55.80;;;28.70;;
2313;SDS011;42279;51.388;7.000;2023-02-12T04:30:13;52.03;;;26.83;;
2313;SDS011;42279;51.388;7.000;2023-02-12T04:32:47;49.13;;;27.93;;
2313;SDS011;42279;51.388;7.000;2023-02-12T04:38:31;54.77;;;30.20;;
2313;SDS011;42279;51.388;7.000;2023-02-12T04:40:33;56.17;;;29.70;;
2313;SDS011;42279;51.388;7.000;2023-02-12T04:42:59;49.37;;;26.07;;
2313;SDS011;42279;51.388;7.000;2023-02-12T04:45:27;56.33;;;29.10;;
2313;SDS011;42279;51.388;7.000;2023-02-12T04:47:53;63.73;;;31.73;;
2313;SDS011;42279;51.388;7.000;2023-02-12T04:50:19;59.50;;;29.07;;
2313;SDS011;42279;51.388;7.000;2023-02-12T04:52:45;72.23;;;33.23;;
2313;SDS011;42279;51.388;7.000;2023-02-12T04:55:11;60.57;;;30.83;;
2313;SDS011;42279;51.388;7.000;2023-02-12T04:57:37;52.77;;;27.83;;
2313;SDS011;42279;51.388;7.000;2023-02-12T05:00:04;58.70;;;29.93;;
2313;SDS011;42279;51.388;7.000;2023-02-12T05:02:32;54.73;;;29.03;;
2313;SDS011;42279;51.388;7.000;2023-02-12T05:04:58;61.30;;;32.73;;
2313;SDS011;42279;51.388;7.000;2023-02-12T05:07:24;58.23;;;30.33;;
2313;SDS011;42279;51.388;7.000;2023-02-12T05:09:50;64.83;;;31.60;;
2313;SDS011;42279;51.388;7.000;2023-02-12T05:12:16;54.50;;;27.20;;
2313;SDS011;42279;51.388;7.000;2023-02-12T05:14:42;62.93;;;30.13;;
2313;SDS011;42279;51.388;7.000;2023-02-12T05:17:08;63.20;;;31.07;;
2313;SDS011;42279;51.388;7.000;2023-02-12T05:19:34;59.33;;;31.13;;
2313;SDS011;42279;51.388;7.000;2023-02-12T05:22:00;70.93;;;34.40;;
2313;SDS011;42279;51.388;7.000;2023-02-12T05:24:26;69.93;;;33.43;;
2313;SDS011;42279;51.388;7.000;2023-02-12T05:26:52;59.20;;;28.80;;
2313;SDS011;42279;51.388;7.000;2023-02-12T05:29:18;68.00;;;31.47;;
2313;SDS011;42279;51.388;7.000;2023-02-12T05:31:44;52.90;;;28.87;;
2313;SDS011;42279;51.388;7.000;2023-02-12T05:34:10;54.30;;;29.03;;
2313;SDS011;42279;51.388;7.000;2023-02-12T05:36:37;54.17;;;27.33;;
2313;SDS011;42279;51.388;7.000;2023-02-12T05:39:03;58.07;;;28.20;;
2313;SDS011;42279;51.388;7.000;2023-02-12T05:41:29;61.00;;;29.40;;
2313;SDS011;42279;51.388;7.000;2023-02-12T05:44:00;57.67;;;28.90;;
2313;SDS011;42279;51.388;7.000;2023-02-12T05:46:26;62.63;;;31.13;;
2313;SDS011;42279;51.388;7.000;2023-02-12T05:48:52;57.70;;;32.47;;
2313;SDS011;42279;51.388;7.000;2023-02-12T05:51:19;62.43;;;32.63;;
2313;SDS011;42279;51.388;7.000;2023-02-12T05:53:45;58.90;;;31.47;;
2313;SDS011;42279;51.388;7.000;2023-02-12T05:58:44;57.63;;;31.80;;
2313;SDS011;42279;51.388;7.000;2023-02-12T06:01:16;55.70;;;29.37;;
2313;SDS011;42279;51.388;7.000;2023-02-12T06:03:42;62.20;;;31.80;;
2313;SDS011;42279;51.388;7.000;2023-02-12T06:06:08;55.27;;;31.50;;
2313;SDS011;42279;51.388;7.000;2023-02-12T06:08:34;56.47;;;28.30;;
2313;SDS011;42279;51.388;7.000;2023-02-12T06:11:04;55.77;;;30.07;;
2313;SDS011;42279;51.388;7.000;2023-02-12T06:13:31;55.83;;;29.27;;
2313;SDS011;42279;51.388;7.000;2023-02-12T06:15:57;64.70;;;30.83;;
2313;SDS011;42279;51.388;7.000;2023-02-12T06:18:23;64.60;;;32.47;;
2313;SDS011;42279;51.388;7.000;2023-02-12T06:20:49;61.20;;;30.60;;
2313;SDS011;42279;51.388;7.000;2023-02-12T06:23:15;63.20;;;32.40;;
2313;SDS011;42279;51.388;7.000;2023-02-12T06:25:41;60.73;;;30.90;;
2313;SDS011;42279;51.388;7.000;2023-02-12T06:28:07;51.33;;;28.83;;
2313;SDS011;42279;51.388;7.000;2023-02-12T06:30:33;52.40;;;29.33;;
2313;SDS011;42279;51.388;7.000;2023-02-12T06:32:59;56.57;;;28.80;;
2313;SDS011;42279;51.388;7.000;2023-02-12T06:35:25;54.20;;;28.67;;
2313;SDS011;42279;51.388;7.000;2023-02-12T06:37:51;60.83;;;29.17;;
2313;SDS011;42279;51.388;7.000;2023-02-12T06:40:17;60.20;;;30.30;;
2313;SDS011;42279;51.388;7.000;2023-02-12T06:42:43;56.23;;;29.10;;
2313;SDS011;42279;51.388;7.000;2023-02-12T06:45:09;53.60;;;27.80;;
2313;SDS011;42279;51.388;7.000;2023-02-12T06:47:36;52.80;;;29.17;;
2313;SDS011;42279;51.388;7.000;2023-02-12T06:50:02;60.23;;;32.40;;
2313;SDS011;42279;51.388;7.000;2023-02-12T06:52:28;54.57;;;28.87;;
2313;SDS011;42279;51.388;7.000;2023-02-12T06:54:55;47.17;;;28.50;;
2313;SDS011;42279;51.388;7.000;2023-02-12T06:57:21;59.17;;;29.63;;
2313;SDS011;42279;51.388;7.000;2023-02-12T06:59:47;55.57;;;28.83;;
2313;SDS011;42279;51.388;7.000;2023-02-12T07:02:13;59.70;;;29.67;;
2313;SDS011;42279;51.388;7.000;2023-02-12T07:04:39;62.97;;;31.67;;
2313;SDS011;42279;51.388;7.000;2023-02-12T07:07:06;66.10;;;33.13;;
2313;SDS011;42279;51.388;7.000;2023-02-12T07:09:32;62.27;;;31.80;;
2313;SDS011;42279;51.388;7.000;2023-02-12T07:11:58;68.93;;;31.47;;
2313;SDS011;42279;51.388;7.000;2023-02-12T07:14:24;58.77;;;30.57;;
2313;SDS011;42279;51.388;7.000;2023-02-12T07:16:52;56.27;;;30.53;;
2313;SDS011;42279;51.388;7.000;2023-02-12T07:19:18;57.97;;;31.00;;
2313;SDS011;42279;51.388;7.000;2023-02-12T07:21:44;66.70;;;32.77;;
2313;SDS011;42279;51.388;7.000;2023-02-12T07:24:10;58.73;;;30.33;;
2313;SDS011;42279;51.388;7.000;2023-02-12T07:26:37;56.47;;;30.33;;
2313;SDS011;42279;51.388;7.000;2023-02-12T07:29:03;66.90;;;31.10;;
2313;SDS011;42279;51.388;7.000;2023-02-12T07:31:29;50.40;;;31.20;;
2313;SDS011;42279;51.388;7.000;2023-02-12T07:33:56;51.97;;;30.90;;
2313;SDS011;42279;51.388;7.000;2023-02-12T07:36:23;55.63;;;30.23;;
2313;SDS011;42279;51.388;7.000;2023-02-12T07:38:49;49.33;;;29.37;;
2313;SDS011;42279;51.388;7.000;2023-02-12T07:43:48;57.53;;;29.67;;
2313;SDS011;42279;51.388;7.000;2023-02-12T07:46:19;55.50;;;31.37;;
2313;SDS011;42279;51.388;7.000;2023-02-12T07:48:45;50.07;;;30.20;;
2313;SDS011;42279;51.388;7.000;2023-02-12T07:51:15;54.88;;;30.52;;
2313;SDS011;42279;51.388;7.000;2023-02-12T07:53:43;60.70;;;33.00;;
2313;SDS011;42279;51.388;7.000;2023-02-12T07:56:10;53.67;;;29.83;;
2313;SDS011;42279;51.388;7.000;2023-02-12T07:58:37;57.60;;;31.77;;
2313;SDS011;42279;51.388;7.000;2023-02-12T08:01:20;50.30;;;27.77;;
2313;SDS011;42279;51.388;7.000;2023-02-12T08:03:46;53.90;;;28.97;;
2313;SDS011;42279;51.388;7.000;2023-02-12T08:06:14;60.77;;;28.50;;
2313;SDS011;42279;51.388;7.000;2023-02-12T08:08:40;55.93;;;29.60;;
2313;SDS011;42279;51.388;7.000;2023-02-12T08:11:07;48.50;;;27.50;;
2313;SDS011;42279;51.388;7.000;2023-02-12T08:13:34;51.90;;;29.10;;
2313;SDS011;42279;51.388;7.000;2023-02-12T08:16:00;52.60;;;28.20;;
2313;SDS011;42279;51.388;7.000;2023-02-12T08:18:26;57.10;;;31.13;;
2313;SDS011;42279;51.388;7.000;2023-02-12T08:20:52;54.60;;;29.00;;
2313;SDS011;42279;51.388;7.000;2023-02-12T08:23:18;59.10;;;29.90;;
2313;SDS011;42279;51.388;7.000;2023-02-12T08:25:44;52.27;;;30.13;;
2313;SDS011;42279;51.388;7.000;2023-02-12T08:28:10;53.20;;;29.90;;
2313;SDS011;42279;51.388;7.000;2023-02-12T08:30:36;56.67;;;30.80;;
2313;SDS011;42279;51.388;7.000;2023-02-12T08:33:02;71.20;;;32.73;;
2313;SDS011;42279;51.388;7.000;2023-02-12T08:35:28;61.50;;;32.57;;
2313;SDS011;42279;51.388;7.000;2023-02-12T08:37:54;54.07;;;31.20;;
2313;SDS011;42279;51.388;7.000;2023-02-12T08:40:20;57.13;;;31.07;;
2313;SDS011;42279;51.388;7.000;2023-02-12T08:42:46;52.67;;;31.10;;
2313;SDS011;42279;51.388;7.000;2023-02-12T08:45:12;56.93;;;30.20;;
2313;SDS011;42279;51.388;7.000;2023-02-12T08:47:38;52.00;;;27.30;;
2313;SDS011;42279;51.388;7.000;2023-02-12T08:50:04;47.80;;;29.60;;
2313;SDS011;42279;51.388;7.000;2023-02-12T08:52:31;56.23;;;32.10;;
2313;SDS011;42279;51.388;7.000;2023-02-12T08:54:59;52.57;;;27.80;;
2313;SDS011;42279;51.388;7.000;2023-02-12T08:57:25;57.53;;;29.67;;
2313;SDS011;42279;51.388;7.000;2023-02-12T08:59:51;53.13;;;30.57;;
2313;SDS011;42279;51.388;7.000;2023-02-12T09:02:17;48.03;;;30.10;;
2313;SDS011;42279;51.388;7.000;2023-02-12T09:04:43;52.40;;;30.90;;
2313;SDS011;42279;51.388;7.000;2023-02-12T09:07:09;45.40;;;29.47;;
2313;SDS011;42279;51.388;7.000;2023-02-12T09:09:35;52.40;;;32.93;;
2313;SDS011;42279;51.388;7.000;2023-02-12T09:12:01;49.27;;;30.70;;
2313;SDS011;42279;51.388;7.000;2023-02-12T09:14:27;55.00;;;28.83;;
2313;SDS011;42279;51.388;7.000;2023-02-12T09:16:53;50.70;;;29.33;;
2313;SDS011;42279;51.388;7.000;2023-02-12T09:19:21;51.43;;;30.20;;
2313;SDS011;42279;51.388;7.000;2023-02-12T09:21:51;53.87;;;31.73;;
2313;SDS011;42279;51.388;7.000;2023-02-12T09:24:17;51.70;;;32.47;;
2313;SDS011;42279;51.388;7.000;2023-02-12T09:26:43;50.53;;;33.00;;
2313;SDS011;42279;51.388;7.000;2023-02-12T09:29:09;59.33;;;32.90;;
2313;SDS011;42279;51.388;7.000;2023-02-12T09:31:35;55.90;;;30.90;;
2313;SDS011;42279;51.388;7.000;2023-02-12T09:34:02;45.57;;;30.10;;
2313;SDS011;42279;51.388;7.000;2023-02-12T09:36:28;48.33;;;30.43;;
2313;SDS011;42279;51.388;7.000;2023-02-12T09:38:54;44.20;;;27.07;;
2313;SDS011;42279;51.388;7.000;2023-02-12T09:41:28;45.47;;;29.77;;
2313;SDS011;42279;51.388;7.000;2023-02-12T09:46:34;47.20;;;30.13;;
2313;SDS011;42279;51.388;7.000;2023-02-12T09:49:10;50.80;;;29.90;;
2313;SDS011;42279;51.388;7.000;2023-02-12T09:51:40;50.00;;;30.77;;
2313;SDS011;42279;51.388;7.000;2023-02-12T09:54:11;43.40;;;28.33;;
2313;SDS011;42279;51.388;7.000;2023-02-12T09:56:39;46.10;;;30.40;;
2313;SDS011;42279;51.388;7.000;2023-02-12T09:59:06;52.40;;;30.00;;
2313;SDS011;42279;51.388;7.000;2023-02-12T10:01:34;49.67;;;28.53;;
2313;SDS011;42279;51.388;7.000;2023-02-12T10:04:00;46.77;;;29.77;;
2313;SDS011;42279;51.388;7.000;2023-02-12T10:06:28;46.13;;;30.67;;
2313;SDS011;42279;51.388;7.000;2023-02-12T10:09:00;45.67;;;29.10;;
2313;SDS011;42279;51.388;7.000;2023-02-12T10:27:14;36.37;;;22.93;;
2313;SDS011;42279;51.388;7.000;2023-02-12T10:29:40;31.70;;;23.43;;
2313;SDS011;42279;51.388;7.000;2023-02-12T10:34:37;32.97;;;22.33;;
2313;SDS011;42279;51.388;7.000;2023-02-12T10:37:49;34.83;;;22.90;;
2313;SDS011;42279;51.388;7.000;2023-02-12T10:39:51;33.93;;;23.30;;
2313;SDS011;42279;51.388;7.000;2023-02-12T10:42:20;33.30;;;24.37;;
2313;SDS011;42279;51.388;7.000;2023-02-12T10:44:50;38.80;;;24.30;;
2313;SDS011;42279;51.388;7.000;2023-02-12T10:47:17;34.83;;;22.37;;
2313;SDS011;42279;51.388;7.000;2023-02-12T10:49:44;34.13;;;23.40;;
2313;SDS011;42279;51.388;7.000;2023-02-12T10:55:22;40.43;;;23.20;;
2313;SDS011;42279;51.388;7.000;2023-02-12T10:57:48;44.57;;;23.30;;
2313;SDS011;42279;51.388;7.000;2023-02-12T11:00:21;50.43;;;24.70;;
2313;SDS011;42279;51.388;7.000;2023-02-12T11:02:58;45.93;;;25.30;;
2313;SDS011;42279;51.388;7.000;2023-02-12T11:05:25;54.17;;;23.20;;
2313;SDS011;42279;51.388;7.000;2023-02-12T11:07:53;42.30;;;20.93;;
2313;SDS011;42279;51.388;7.000;2023-02-12T11:10:26;54.53;;;25.47;;
2313;SDS011;42279;51.388;7.000;2023-02-12T11:12:52;66.97;;;25.50;;
2313;SDS011;42279;51.388;7.000;2023-02-12T11:15:19;41.37;;;22.73;;
2313;SDS011;42279;51.388;7.000;2023-02-12T11:17:59;31.80;;;22.40;;
2313;SDS011;42279;51.388;7.000;2023-02-12T11:20:28;42.73;;;22.50;;
2313;SDS011;42279;51.388;7.000;2023-02-12T11:22:58;39.90;;;22.67;;
2313;SDS011;42279;51.388;7.000;2023-02-12T11:25:35;49.97;;;23.80;;
2313;SDS011;42279;51.388;7.000;2023-02-12T11:30:30;33.53;;;20.03;;
2313;SDS011;42279;51.388;7.000;2023-02-12T11:35:47;37.20;;;21.03;;
2313;SDS011;42279;51.388;7.000;2023-02-12T11:38:17;42.97;;;24.60;;
2313;SDS011;42279;51.388;7.000;2023-02-12T11:40:46;51.53;;;25.40;;
2313;SDS011;42279;51.388;7.000;2023-02-12T11:43:12;38.77;;;21.27;;
2313;SDS011;42279;51.388;7.000;2023-02-12T11:45:42;37.90;;;21.47;;
2313;SDS011;42279;51.388;7.000;2023-02-12T11:48:24;33.83;;;22.07;;
2313;SDS011;42279;51.388;7.000;2023-02-12T11:50:51;43.20;;;22.57;;
2313;SDS011;42279;51.388;7.000;2023-02-12T11:53:25;34.30;;;22.27;;
2313;SDS011;42279;51.388;7.000;2023-02-12T11:55:53;35.33;;;20.90;;
2313;SDS011;42279;51.388;7.000;2023-02-12T11:58:20;43.93;;;20.90;;
2313;SDS011;42279;51.388;7.000;2023-02-12T12:00:52;36.20;;;22.60;;
2313;SDS011;42279;51.388;7.000;2023-02-12T12:03:32;34.97;;;21.87;;
2313;SDS011;42279;51.388;7.000;2023-02-12T12:06:14;41.10;;;23.00;;
2313;SDS011;42279;51.388;7.000;2023-02-12T12:11:19;43.57;;;23.37;;
2313;SDS011;42279;51.388;7.000;2023-02-12T12:16:21;39.03;;;20.57;;
2313;SDS011;42279;51.388;7.000;2023-02-12T12:19:11;44.93;;;21.80;;
2313;SDS011;42279;51.388;7.000;2023-02-12T12:22:01;49.57;;;20.97;;
2313;SDS011;42279;51.388;7.000;2023-02-12T12:27:07;44.53;;;22.23;;
2313;SDS011;42279;51.388;7.000;2023-02-12T12:29:54;28.77;;;19.17;;
2313;SDS011;42279;51.388;7.000;2023-02-12T12:32:23;29.10;;;18.07;;
2313;SDS011;42279;51.388;7.000;2023-02-12T12:34:51;26.70;;;18.43;;
2313;SDS011;42279;51.388;7.000;2023-02-12T12:45:21;37.93;;;20.97;;
2313;SDS011;42279;51.388;7.000;2023-02-12T12:55:53;38.20;;;24.10;;
2313;SDS011;42279;51.388;7.000;2023-02-12T13:04:11;38.63;;;22.80;;
2313;SDS011;42279;51.388;7.000;2023-02-12T13:09:47;40.30;;;22.73;;
2313;SDS011;42279;51.388;7.000;2023-02-12T13:27:55;37.33;;;22.33;;
2313;SDS011;42279;51.388;7.000;2023-02-12T13:30:37;38.70;;;21.57;;
2313;SDS011;42279;51.388;7.000;2023-02-12T13:33:14;27.00;;;18.83;;
2313;SDS011;42279;51.388;7.000;2023-02-12T13:35:42;36.37;;;21.07;;
2313;SDS011;42279;51.388;7.000;2023-02-12T13:38:12;34.47;;;20.37;;
2313;SDS011;42279;51.388;7.000;2023-02-12T13:40:40;37.23;;;20.17;;
2313;SDS011;42279;51.388;7.000;2023-02-12T13:45:49;38.13;;;22.40;;
2313;SDS011;42279;51.388;7.000;2023-02-12T13:50:45;37.90;;;20.47;;
2313;SDS011;42279;51.388;7.000;2023-02-12T14:00:56;32.47;;;21.20;;
2313;SDS011;42279;51.388;7.000;2023-02-12T14:03:23;37.90;;;20.50;;
2313;SDS011;42279;51.388;7.000;2023-02-12T14:08:35;32.50;;;20.60;;
2313;SDS011;42279;51.388;7.000;2023-02-12T14:11:23;33.47;;;21.60;;
2313;SDS011;42279;51.388;7.000;2023-02-12T14:18:49;36.47;;;19.10;;
2313;SDS011;42279;51.388;7.000;2023-02-12T14:23:53;38.13;;;22.67;;
2313;SDS011;42279;51.388;7.000;2023-02-12T14:26:39;36.27;;;21.83;;
2313;SDS011;42279;51.388;7.000;2023-02-12T14:29:13;38.23;;;22.23;;
2313;SDS011;42279;51.388;7.000;2023-02-12T14:31:41;37.03;;;23.67;;
2313;SDS011;42279;51.388;7.000;2023-02-12T14:44:46;45.70;;;23.67;;
2313;SDS011;42279;51.388;7.000;2023-02-12T14:47:14;42.17;;;22.00;;
2313;SDS011;42279;51.388;7.000;2023-02-12T14:49:46;40.87;;;23.43;;
2313;SDS011;42279;51.388;7.000;2023-02-12T14:52:14;48.70;;;23.63;;
2313;SDS011;42279;51.388;7.000;2023-02-12T14:57:08;42.40;;;22.47;;
2313;SDS011;42279;51.388;7.000;2023-02-12T14:59:39;37.67;;;22.00;;
2313;SDS011;42279;51.388;7.000;2023-02-12T15:02:06;38.90;;;21.53;;
2313;SDS011;42279;51.388;7.000;2023-02-12T15:04:37;45.40;;;24.33;;
2313;SDS011;42279;51.388;7.000;2023-02-12T15:07:08;43.67;;;24.27;;
2313;SDS011;42279;51.388;7.000;2023-02-12T15:12:24;35.10;;;22.40;;
2313;SDS011;42279;51.388;7.000;2023-02-12T15:17:40;38.23;;;22.00;;
2313;SDS011;42279;51.388;7.000;2023-02-12T15:20:18;36.20;;;23.30;;
2313;SDS011;42279;51.388;7.000;2023-02-12T15:22:47;40.87;;;23.17;;
2313;SDS011;42279;51.388;7.000;2023-02-12T15:25:14;43.20;;;26.20;;
2313;SDS011;42279;51.388;7.000;2023-02-12T15:27:43;39.87;;;23.30;;
2313;SDS011;42279;51.388;7.000;2023-02-12T15:30:17;42.67;;;23.60;;
2313;SDS011;42279;51.388;7.000;2023-02-12T15:32:47;40.40;;;25.00;;
2313;SDS011;42279;51.388;7.000;2023-02-12T15:35:21;49.93;;;24.87;;
2313;SDS011;42279;51.388;7.000;2023-02-12T15:37:49;42.47;;;25.13;;
2313;SDS011;42279;51.388;7.000;2023-02-12T15:40:15;54.43;;;28.80;;
2313;SDS011;42279;51.388;7.000;2023-02-12T15:45:37;41.70;;;24.00;;
2313;SDS011;42279;51.388;7.000;2023-02-12T15:48:14;34.27;;;22.13;;
2313;SDS011;42279;51.388;7.000;2023-02-12T15:50:50;40.97;;;24.13;;
2313;SDS011;42279;51.388;7.000;2023-02-12T15:53:17;40.83;;;25.10;;
2313;SDS011;42279;51.388;7.000;2023-02-12T15:55:43;44.10;;;24.43;;
2313;SDS011;42279;51.388;7.000;2023-02-12T16:00:58;41.13;;;22.97;;
2313;SDS011;42279;51.388;7.000;2023-02-12T16:03:27;41.40;;;25.07;;
2313;SDS011;42279;51.388;7.000;2023-02-12T16:05:56;41.27;;;23.17;;
2313;SDS011;42279;51.388;7.000;2023-02-12T16:08:24;35.27;;;21.43;;
2313;SDS011;42279;51.388;7.000;2023-02-12T16:10:53;38.70;;;23.30;;
2313;SDS011;42279;51.388;7.000;2023-02-12T16:13:25;40.90;;;24.30;;
2313;SDS011;42279;51.388;7.000;2023-02-12T16:16:04;40.10;;;24.33;;
2313;SDS011;42279;51.388;7.000;2023-02-12T16:18:31;34.97;;;22.63;;
2313;SDS011;42279;51.388;7.000;2023-02-12T16:21:01;38.43;;;21.83;;
2313;SDS011;42279;51.388;7.000;2023-02-12T16:23:27;37.17;;;23.67;;
2313;SDS011;42279;51.388;7.000;2023-02-12T16:25:56;31.50;;;20.93;;
2313;SDS011;42279;51.388;7.000;2023-02-12T16:28:24;36.97;;;22.80;;
2313;SDS011;42279;51.388;7.000;2023-02-12T16:30:52;37.17;;;21.93;;
2313;SDS011;42279;51.388;7.000;2023-02-12T16:36:08;36.57;;;22.13;;
2313;SDS011;42279;51.388;7.000;2023-02-12T16:41:18;35.53;;;20.60;;
2313;SDS011;42279;51.388;7.000;2023-02-12T16:44:32;40.20;;;21.60;;
2313;SDS011;42279;51.388;7.000;2023-02-12T16:46:42;37.83;;;22.00;;
2313;SDS011;42279;51.388;7.000;2023-02-12T16:49:12;28.97;;;19.63;;
2313;SDS011;42279;51.388;7.000;2023-02-12T16:51:42;37.00;;;22.07;;
2313;SDS011;42279;51.388;7.000;2023-02-12T16:57:10;38.47;;;23.57;;
2313;SDS011;42279;51.388;7.000;2023-02-12T16:59:36;34.83;;;22.60;;
2313;SDS011;42279;51.388;7.000;2023-02-12T17:02:09;34.40;;;22.73;;
2313;SDS011;42279;51.388;7.000;2023-02-12T17:04:36;32.87;;;20.83;;
2313;SDS011;42279;51.388;7.000;2023-02-12T17:07:02;34.13;;;22.93;;
2313;SDS011;42279;51.388;7.000;2023-02-12T17:09:28;43.53;;;23.00;;
2313;SDS011;42279;51.388;7.000;2023-02-12T17:11:55;35.80;;;21.63;;
2313;SDS011;42279;51.388;7.000;2023-02-12T17:14:21;33.70;;;21.27;;
2313;SDS011;42279;51.388;7.000;2023-02-12T17:16:47;34.70;;;22.97;;
2313;SDS011;42279;51.388;7.000;2023-02-12T17:19:14;42.43;;;22.90;;
2313;SDS011;42279;51.388;7.000;2023-02-12T17:21:41;31.03;;;21.93;;
2313;SDS011;42279;51.388;7.000;2023-02-12T17:26:36;32.17;;;21.07;;
2313;SDS011;42279;51.388;7.000;2023-02-12T17:29:03;36.53;;;22.27;;
2313;SDS011;42279;51.388;7.000;2023-02-12T17:31:34;31.97;;;21.70;;
2313;SDS011;42279;51.388;7.000;2023-02-12T17:34:01;39.80;;;21.60;;